Aérodrome :
LOGIN :

S'inscrire | Disclaimer

   EN    FR    IT 

 










Légende :    VFR   VFR Marginal   IFR   IFR Intensif   IFR Très Intensif
Visi : 
Plafond : 
>= 8 km
>= 3000ft
5 à 8 km
1000 à 3000 ft
1500m à 5 km
500 à 1000 ft
800 à 1500m
200 à 500 ft
< 800m
< 200 ft
Symboles :   Orages  Brouillard  Fortes neiges  Fortes précipitations  Vent > 20 kt
SIGMETs :   Divers  Orages  Givrage  Turbulence  Onde Orograph.  Cendres Volcan.






- Altitude de l'aérodrome : 3368 ft


LSGC - Les Eplatures

DERNIER METAR :
  • 232020Z AUTO 23006KT 190V260 9999 SCT039 SCT045 02/M02 Q0997

METARs EXPIRÉS :
  • 231950Z AUTO 23005KT 200V260 9999 NCD 01/M02 Q0997
  • 231920Z AUTO 22007KT 190V250 9999 SCT048 02/M02 Q0997
  • 231850Z AUTO 21007KT CAVOK 02/M02 Q0997
  • 231820Z AUTO 21007KT 180V260 9999 NCD 02/M02 Q0996
  • 231750Z AUTO 20005KT 9999 FEW049 02/M02 Q0996
  • 231720Z AUTO 22003KT 190V260 CAVOK 02/M01 Q0996
  • 231650Z VRB03KT CAVOK 02/M01 Q0996 RESN
  • 231620Z 26004KT 220V300 9999 -SN FEW028 BKN045 02/M00 Q0996
  • 231550Z 20004KT 180V250 9999 -SN NSC 02/M01 Q0996 RERASN

TAF TAF LSGC
Valide du 23 à 15h jusqu'au 24 à 00h UTC


231425Z 2315/2324 24010KT 9999 BKN025
PROB30
TEMPO 2315/2324 4000 SHSN BKN014



MET'MAP, la Météo Aéronautique d'un coup d'oeil ! - Copyright ORBIFLY Décembre 2007 - Disclaimer

ORBIFLY MET'MAP TEAM :

Programmation & Développement : Alexandra Zaïnal
Sur une idée originale de : Baudouin d'Aumeries
Soutien technique & logistique : Manuel Goepfert
Assistance : Marc-Olivier Méhu




SOURCES & CREDITS :

   NOAA